Aviation Digital Data Service (ADDS)

Output produced by METARs form (1950 UTC 17 November 2019)
found at http://www.aviationweather.gov/metar/data/
 
METAR text: EHEH 171925Z AUTO 35007KT 270V020 9999 FEW084 OVC091 05/03 Q1010 BLU 36007KT CAVOK BECMG 4500 -DZRA FEW025 SCT035 OVC090
Conditions at: EHEH (EINDHOVEN RNLAFB, NL) observed 1925 UTC 17 November 2019
Temperature: 5.0°C (41°F)
Dewpoint: 3.0°C (37°F) [RH = 87%]
Pressure (altimeter): 29.82 inches Hg (1010.0 mb)
Winds: from the N (350 degrees) at 8 MPH (7 knots; 3.6 m/s)
Visibility: 6 or more miles (10+ km)
Ceiling: 9100 feet AGL
Clouds: few clouds at 8400 feet AGL
overcast cloud deck at 9100 feet AGL
Weather: no significant weather observed at this time

METAR text: EHEH 171855Z AUTO VRB07KT 9999 BKN097 OVC100 05/03 Q1010 BLU 36007KT CAVOK BECMG 4500 -DZRA FEW025 SCT035 OVC090
Conditions at: EHEH (EINDHOVEN RNLAFB, NL) observed 1855 UTC 17 November 2019
Temperature: 5.0°C (41°F)
Dewpoint: 3.0°C (37°F) [RH = 87%]
Pressure (altimeter): 29.82 inches Hg (1010.0 mb)
Winds: variable direction winds at 8 MPH (7 knots; 3.6 m/s)
Visibility: 6 or more miles (10+ km)
Ceiling: 9700 feet AGL
Clouds: broken clouds at 9700 feet AGL
overcast cloud deck at 10000 feet AGL
Weather: no significant weather observed at this time

METAR text: EHEH 171825Z AUTO 01006KT 9999 OVC100 05/03 Q1010 BLU 02005KT CAVOK
Conditions at: EHEH (EINDHOVEN RNLAFB, NL) observed 1825 UTC 17 November 2019
Temperature: 5.0°C (41°F)
Dewpoint: 3.0°C (37°F) [RH = 87%]
Pressure (altimeter): 29.82 inches Hg (1010.0 mb)
Winds: from the N (10 degrees) at 7 MPH (6 knots; 3.1 m/s)
Visibility: 6 or more miles (10+ km)
Ceiling: 10000 feet AGL
Clouds: overcast cloud deck at 10000 feet AGL
Weather: no significant weather observed at this time

METAR text: EHEH 171755Z AUTO 36006KT 280V040 9000 BR OVC120 04/03 Q1010 BLU 02005KT CAVOK
Conditions at: EHEH (EINDHOVEN RNLAFB, NL) observed 1755 UTC 17 November 2019
Temperature: 4.0°C (39°F)
Dewpoint: 3.0°C (37°F) [RH = 93%]
Pressure (altimeter): 29.82 inches Hg (1010.0 mb)
Winds: from the N (360 degrees) at 7 MPH (6 knots; 3.1 m/s)
Visibility: 6 or more miles (10+ km)
Ceiling: 12000 feet AGL
Clouds: overcast cloud deck at 12000 feet AGL
Weather: BR  (mist)

METAR text: EHEH 171725Z AUTO 33007KT 300V020 9999 OVC110 05/03 Q1010 BLU 02005KT CAVOK
Conditions at: EHEH (EINDHOVEN RNLAFB, NL) observed 1725 UTC 17 November 2019
Temperature: 5.0°C (41°F)
Dewpoint: 3.0°C (37°F) [RH = 87%]
Pressure (altimeter): 29.82 inches Hg (1010.0 mb)
Winds: from the NNW (330 degrees) at 8 MPH (7 knots; 3.6 m/s)
Visibility: 6 or more miles (10+ km)
Ceiling: 11000 feet AGL
Clouds: overcast cloud deck at 11000 feet AGL
Weather: no significant weather observed at this time

METAR text: EHEH 171655Z AUTO 35005KT 270V020 9999 OVC120 05/03 Q1010 BLU 02005KT CAVOK
Conditions at: EHEH (EINDHOVEN RNLAFB, NL) observed 1655 UTC 17 November 2019
Temperature: 5.0°C (41°F)
Dewpoint: 3.0°C (37°F) [RH = 87%]
Pressure (altimeter): 29.82 inches Hg (1010.0 mb)
Winds: from the N (350 degrees) at 6 MPH (5 knots; 2.6 m/s)
Visibility: 6 or more miles (10+ km)
Ceiling: 12000 feet AGL
Clouds: overcast cloud deck at 12000 feet AGL
Weather: no significant weather observed at this time

METAR text: EHEH 171625Z AUTO 35005KT 320V020 9999 OVC130 05/03 Q1010 BLU 02005KT CAVOK
Conditions at: EHEH (EINDHOVEN RNLAFB, NL) observed 1625 UTC 17 November 2019
Temperature: 5.0°C (41°F)
Dewpoint: 3.0°C (37°F) [RH = 87%]
Pressure (altimeter): 29.82 inches Hg (1010.0 mb)
Winds: from the N (350 degrees) at 6 MPH (5 knots; 2.6 m/s)
Visibility: 6 or more miles (10+ km)
Ceiling: 13000 feet AGL
Clouds: overcast cloud deck at 13000 feet AGL
Weather: no significant weather observed at this time

METAR text: EHEH 171555Z AUTO 36006KT 320V030 9999 OVC130 05/03 Q1010 BLU 02005KT CAVOK
Conditions at: EHEH (EINDHOVEN RNLAFB, NL) observed 1555 UTC 17 November 2019
Temperature: 5.0°C (41°F)
Dewpoint: 3.0°C (37°F) [RH = 87%]
Pressure (altimeter): 29.82 inches Hg (1010.0 mb)
Winds: from the N (360 degrees) at 7 MPH (6 knots; 3.1 m/s)
Visibility: 6 or more miles (10+ km)
Ceiling: 13000 feet AGL
Clouds: overcast cloud deck at 13000 feet AGL
Weather: no significant weather observed at this time

METAR text: EHEH 171525Z AUTO 35006KT 310V030 9999 OVC140 06/03 Q1010 BLU 02005KT CAVOK
Conditions at: EHEH (EINDHOVEN RNLAFB, NL) observed 1525 UTC 17 November 2019
Temperature: 6.0°C (43°F)
Dewpoint: 3.0°C (37°F) [RH = 81%]
Pressure (altimeter): 29.82 inches Hg (1010.0 mb)
Winds: from the N (350 degrees) at 7 MPH (6 knots; 3.1 m/s)
Visibility: 6 or more miles (10+ km)
Ceiling: 14000 feet AGL
Clouds: overcast cloud deck at 14000 feet AGL
Weather: no significant weather observed at this time

METAR text: EHEH 171455Z AUTO 36006KT 320V030 9999 OVC140 06/03 Q1010 BLU 02005KT CAVOK
Conditions at: EHEH (EINDHOVEN RNLAFB, NL) observed 1455 UTC 17 November 2019
Temperature: 6.0°C (43°F)
Dewpoint: 3.0°C (37°F) [RH = 81%]
Pressure (altimeter): 29.82 inches Hg (1010.0 mb)
Winds: from the N (360 degrees) at 7 MPH (6 knots; 3.1 m/s)
Visibility: 6 or more miles (10+ km)
Ceiling: 14000 feet AGL
Clouds: overcast cloud deck at 14000 feet AGL
Weather: no significant weather observed at this time

METAR text: EHEH 171425Z AUTO 03005KT 320V040 9999 OVC140 06/03 Q1011 BLU 02005KT CAVOK
Conditions at: EHEH (EINDHOVEN RNLAFB, NL) observed 1425 UTC 17 November 2019
Temperature: 6.0°C (43°F)
Dewpoint: 3.0°C (37°F) [RH = 81%]
Pressure (altimeter): 29.85 inches Hg (1011.0 mb)
Winds: from the NNE (30 degrees) at 6 MPH (5 knots; 2.6 m/s)
Visibility: 6 or more miles (10+ km)
Ceiling: 14000 feet AGL
Clouds: overcast cloud deck at 14000 feet AGL
Weather: no significant weather observed at this time

METAR text: EHEH 171355Z AUTO 02004KT 340V050 9999 OVC150 06/03 Q1011 BLU 02005KT CAVOK
Conditions at: EHEH (EINDHOVEN RNLAFB, NL) observed 1355 UTC 17 November 2019
Temperature: 6.0°C (43°F)
Dewpoint: 3.0°C (37°F) [RH = 81%]
Pressure (altimeter): 29.85 inches Hg (1011.0 mb)
Winds: from the NNE (20 degrees) at 5 MPH (4 knots; 2.1 m/s)
Visibility: 6 or more miles (10+ km)
Ceiling: 15000 feet AGL
Clouds: overcast cloud deck at 15000 feet AGL
Weather: no significant weather observed at this time

METAR text: EHEH 171325Z AUTO 03005KT 320V050 9999 OVC150 06/03 Q1011 BLU 02005KT CAVOK
Conditions at: EHEH (EINDHOVEN RNLAFB, NL) observed 1325 UTC 17 November 2019
Temperature: 6.0°C (43°F)
Dewpoint: 3.0°C (37°F) [RH = 81%]
Pressure (altimeter): 29.85 inches Hg (1011.0 mb)
Winds: from the NNE (30 degrees) at 6 MPH (5 knots; 2.6 m/s)
Visibility: 6 or more miles (10+ km)
Ceiling: 15000 feet AGL
Clouds: overcast cloud deck at 15000 feet AGL
Weather: no significant weather observed at this time

METAR text: EHEH 171255Z AUTO 02006KT 350V050 9999 FEW160 OVC230 06/02 Q1011 BLU 02005KT CAVOK
Conditions at: EHEH (EINDHOVEN RNLAFB, NL) observed 1255 UTC 17 November 2019
Temperature: 6.0°C (43°F)
Dewpoint: 2.0°C (36°F) [RH = 75%]
Pressure (altimeter): 29.85 inches Hg (1011.0 mb)
Winds: from the NNE (20 degrees) at 7 MPH (6 knots; 3.1 m/s)
Visibility: 6 or more miles (10+ km)
Ceiling: 23000 feet AGL
Clouds: few clouds at 16000 feet AGL
overcast cloud deck at 23000 feet AGL
Weather: no significant weather observed at this time

METAR text: EHEH 171225Z AUTO 02005KT 350V050 9999 OVC160 06/02 Q1011 BLU 02003KT CAVOK
Conditions at: EHEH (EINDHOVEN RNLAFB, NL) observed 1225 UTC 17 November 2019
Temperature: 6.0°C (43°F)
Dewpoint: 2.0°C (36°F) [RH = 75%]
Pressure (altimeter): 29.85 inches Hg (1011.0 mb)
Winds: from the NNE (20 degrees) at 6 MPH (5 knots; 2.6 m/s)
Visibility: 6 or more miles (10+ km)
Ceiling: 16000 feet AGL
Clouds: overcast cloud deck at 16000 feet AGL
Weather: no significant weather observed at this time

METAR text: EHEH 171155Z AUTO 06004KT 010V130 9999 OVC160 06/02 Q1011 BLU 02003KT CAVOK
Conditions at: EHEH (EINDHOVEN RNLAFB, NL) observed 1155 UTC 17 November 2019
Temperature: 6.0°C (43°F)
Dewpoint: 2.0°C (36°F) [RH = 75%]
Pressure (altimeter): 29.85 inches Hg (1011.0 mb)
Winds: from the ENE (60 degrees) at 5 MPH (4 knots; 2.1 m/s)
Visibility: 6 or more miles (10+ km)
Ceiling: 16000 feet AGL
Clouds: overcast cloud deck at 16000 feet AGL
Weather: no significant weather observed at this time

METAR text: EHEH 171125Z AUTO 08004KT 040V140 9999 OVC170 06/02 Q1011 BLU 02003KT CAVOK
Conditions at: EHEH (EINDHOVEN RNLAFB, NL) observed 1125 UTC 17 November 2019
Temperature: 6.0°C (43°F)
Dewpoint: 2.0°C (36°F) [RH = 75%]
Pressure (altimeter): 29.85 inches Hg (1011.0 mb)
Winds: from the E (80 degrees) at 5 MPH (4 knots; 2.1 m/s)
Visibility: 6 or more miles (10+ km)
Ceiling: 17000 feet AGL
Clouds: overcast cloud deck at 17000 feet AGL
Weather: no significant weather observed at this time

METAR text: EHEH 171055Z AUTO 05005KT 360V120 9999 OVC200 07/03 Q1011 BLU 02003KT CAVOK
Conditions at: EHEH (EINDHOVEN RNLAFB, NL) observed 1055 UTC 17 November 2019
Temperature: 7.0°C (45°F)
Dewpoint: 3.0°C (37°F) [RH = 76%]
Pressure (altimeter): 29.85 inches Hg (1011.0 mb)
Winds: from the NE (50 degrees) at 6 MPH (5 knots; 2.6 m/s)
Visibility: 6 or more miles (10+ km)
Ceiling: 20000 feet AGL
Clouds: overcast cloud deck at 20000 feet AGL
Weather: no significant weather observed at this time

METAR text: EHEH 171025Z AUTO VRB02KT 9999 OVC200 06/03 Q1011 BLU 02003KT CAVOK
Conditions at: EHEH (EINDHOVEN RNLAFB, NL) observed 1025 UTC 17 November 2019
Temperature: 6.0°C (43°F)
Dewpoint: 3.0°C (37°F) [RH = 81%]
Pressure (altimeter): 29.85 inches Hg (1011.0 mb)
Winds: variable direction winds at 2 MPH (2 knots; 1.0 m/s)
Visibility: 6 or more miles (10+ km)
Ceiling: 20000 feet AGL
Clouds: overcast cloud deck at 20000 feet AGL
Weather: no significant weather observed at this time

METAR text: EHEH 170955Z AUTO 35003KT 270V050 9999 BKN210 OVC270 05/02 Q1011 BLU 02003KT CAVOK
Conditions at: EHEH (EINDHOVEN RNLAFB, NL) observed 0955 UTC 17 November 2019
Temperature: 5.0°C (41°F)
Dewpoint: 2.0°C (36°F) [RH = 81%]
Pressure (altimeter): 29.85 inches Hg (1011.0 mb)
Winds: from the N (350 degrees) at 3 MPH (3 knots; 1.5 m/s)
Visibility: 6 or more miles (10+ km)
Ceiling: 21000 feet AGL
Clouds: broken clouds at 21000 feet AGL
overcast cloud deck at 27000 feet AGL
Weather: no significant weather observed at this time

METAR text: EHEH 170925Z AUTO VRB02KT 9999 OVC220 04/02 Q1012 BLU 02003KT CAVOK
Conditions at: EHEH (EINDHOVEN RNLAFB, NL) observed 0925 UTC 17 November 2019
Temperature: 4.0°C (39°F)
Dewpoint: 2.0°C (36°F) [RH = 87%]
Pressure (altimeter): 29.88 inches Hg (1012.0 mb)
Winds: variable direction winds at 2 MPH (2 knots; 1.0 m/s)
Visibility: 6 or more miles (10+ km)
Ceiling: 22000 feet AGL
Clouds: overcast cloud deck at 22000 feet AGL
Weather: no significant weather observed at this time

METAR text: EHEH 170855Z AUTO VRB02KT 9000 BR OVC230 02/01 Q1012 BLU 02003KT CAVOK
Conditions at: EHEH (EINDHOVEN RNLAFB, NL) observed 0855 UTC 17 November 2019
Temperature: 2.0°C (36°F)
Dewpoint: 1.0°C (34°F) [RH = 93%]
Pressure (altimeter): 29.88 inches Hg (1012.0 mb)
Winds: variable direction winds at 2 MPH (2 knots; 1.0 m/s)
Visibility: 6 or more miles (10+ km)
Ceiling: 23000 feet AGL
Clouds: overcast cloud deck at 23000 feet AGL
Weather: BR  (mist)

METAR text: EHEH 170838Z AUTO VRB01KT 9000 BR OVC240 01/00 Q1012 BLU 02003KT CAVOK
Conditions at: EHEH (EINDHOVEN RNLAFB, NL) observed 0838 UTC 17 November 2019
Temperature: 1.0°C (34°F)
Dewpoint: 0.0°C (32°F) [RH = 93%]
Pressure (altimeter): 29.88 inches Hg (1012.0 mb)
Winds: variable direction winds at 1 MPH (1 knots; 0.5 m/s)
Visibility: 6 or more miles (10+ km)
Ceiling: 24000 feet AGL
Clouds: overcast cloud deck at 24000 feet AGL
Weather: BR  (mist)

METAR text: EHEH 170834Z AUTO VRB02KT 9999 OVC240 01/00 Q1012 BLU 12004KT 7000 NSC
Conditions at: EHEH (EINDHOVEN RNLAFB, NL) observed 0834 UTC 17 November 2019
Temperature: 1.0°C (34°F)
Dewpoint: 0.0°C (32°F) [RH = 93%]
Pressure (altimeter): 29.88 inches Hg (1012.0 mb)
Winds: variable direction winds at 2 MPH (2 knots; 1.0 m/s)
Visibility: 6 or more miles (10+ km)
Ceiling: 24000 feet AGL
Clouds: overcast cloud deck at 24000 feet AGL
Weather: no significant weather observed at this time

METAR text: EHEH 170825Z AUTO VRB01KT 6000 BR OVC250 01/M00 Q1012 WHT 12004KT 7000 NSC
Conditions at: EHEH (EINDHOVEN RNLAFB, NL) observed 0825 UTC 17 November 2019
Temperature: 1.0°C (34°F)
Dewpoint: 0.0°C (32°F) [RH = 93%]
Pressure (altimeter): 29.88 inches Hg (1012.0 mb)
Winds: variable direction winds at 1 MPH (1 knots; 0.5 m/s)
Visibility: 4 miles ( 6 km)
Ceiling: 25000 feet AGL
Clouds: overcast cloud deck at 25000 feet AGL
Weather: BR  (mist)

METAR text: EHEH 170755Z AUTO 12003KT 100V170 5000 BR OVC270 M00/M00 Q1012 WHT 12004KT 7000 NSC
Conditions at: EHEH (EINDHOVEN RNLAFB, NL) observed 0755 UTC 17 November 2019
Temperature: 0.0°C (32°F)
Dewpoint: 0.0°C (32°F) [RH = 100%]
Pressure (altimeter): 29.88 inches Hg (1012.0 mb)
Winds: from the ESE (120 degrees) at 3 MPH (3 knots; 1.5 m/s)
Visibility: 3 miles ( 5 km)
Ceiling: 27000 feet AGL
Clouds: overcast cloud deck at 27000 feet AGL
Weather: BR  (mist)

METAR text: EHEH 170745Z AUTO 13003KT 120V240 4800 BR OVC270 M00/M01 Q1012 GRN 12004KT 7000 NSC TEMPO 3000 BR MIFG
Conditions at: EHEH (EINDHOVEN RNLAFB, NL) observed 0745 UTC 17 November 2019
Temperature: 0.0°C (32°F)
Dewpoint: -1.0°C (30°F) [RH = 93%]
Pressure (altimeter): 29.88 inches Hg (1012.0 mb)
Winds: from the SE (130 degrees) at 3 MPH (3 knots; 1.5 m/s)
Visibility: 2.98 miles (4.80 km)
Ceiling: 27000 feet AGL
Clouds: overcast cloud deck at 27000 feet AGL
Weather: BR  (mist)

METAR text: EHEH 170741Z AUTO 13004KT 120V240 5000 BR BKN280 M00/M01 Q1012 WHT 12004KT 7000 NSC TEMPO 3000 BR MIFG
Conditions at: EHEH (EINDHOVEN RNLAFB, NL) observed 0741 UTC 17 November 2019
Temperature: 0.0°C (32°F)
Dewpoint: -1.0°C (30°F) [RH = 93%]
Pressure (altimeter): 29.88 inches Hg (1012.0 mb)
Winds: from the SE (130 degrees) at 5 MPH (4 knots; 2.1 m/s)
Visibility: 3 miles ( 5 km)
Ceiling: 28000 feet AGL
Clouds: broken clouds at 28000 feet AGL
Weather: BR  (mist)

METAR text: EHEH 170731Z AUTO 13004KT 110V200 3900 BR FEW280 M00/M01 Q1012 GRN 12004KT 7000 NSC TEMPO 3000 BR MIFG
Conditions at: EHEH (EINDHOVEN RNLAFB, NL) observed 0731 UTC 17 November 2019
Temperature: 0.0°C (32°F)
Dewpoint: -1.0°C (30°F) [RH = 93%]
Pressure (altimeter): 29.88 inches Hg (1012.0 mb)
Winds: from the SE (130 degrees) at 5 MPH (4 knots; 2.1 m/s)
Visibility: 2.42 miles (3.89 km)
Ceiling: at least 12,000 feet AGL
Clouds: few clouds at 28000 feet AGL
Weather: BR  (mist)

METAR text: EHEH 170730Z AUTO 13004KT 100V240 3600 R21/P3000N BR NCD 00/M01 Q1012 YLO 12004KT 7000 NSC TEMPO 3000 BR MIFG
Conditions at: EHEH (EINDHOVEN RNLAFB, NL) observed 0730 UTC 17 November 2019
Temperature: 0.0°C (32°F)
Dewpoint: -1.0°C (30°F) [RH = 93%]
Pressure (altimeter): 29.88 inches Hg (1012.0 mb)
Winds: from the SE (130 degrees) at 5 MPH (4 knots; 2.1 m/s)
Visibility: 2.24 miles (3.60 km)
Ceiling: at least 12,000 feet AGL
Clouds: sky clear below 12,000 feet AGL
Weather: BR  (mist)

METAR text: EHEH 170725Z AUTO 13004KT 080V240 6000 BR FEW280 00/M01 Q1012 WHT 12004KT 7000 NSC
Conditions at: EHEH (EINDHOVEN RNLAFB, NL) observed 0725 UTC 17 November 2019
Temperature: 0.0°C (32°F)
Dewpoint: -1.0°C (30°F) [RH = 93%]
Pressure (altimeter): 29.88 inches Hg (1012.0 mb)
Winds: from the SE (130 degrees) at 5 MPH (4 knots; 2.1 m/s)
Visibility: 4 miles ( 6 km)
Ceiling: at least 12,000 feet AGL
Clouds: few clouds at 28000 feet AGL
Weather: BR  (mist)

METAR text: EHEH 170700Z AUTO VRB03KT 7000 BR FEW270 00/M00 Q1012 WHT 12004KT CAVOK
Conditions at: EHEH (EINDHOVEN RNLAFB, NL) observed 0700 UTC 17 November 2019
Temperature: 0.0°C (32°F)
Dewpoint: 0.0°C (32°F) [RH = 100%]
Pressure (altimeter): 29.88 inches Hg (1012.0 mb)
Winds: variable direction winds at 3 MPH (3 knots; 1.5 m/s)
Visibility: 6 or more miles (10+ km)
Ceiling: at least 12,000 feet AGL
Clouds: few clouds at 27000 feet AGL
Weather: BR  (mist)

METAR text: EHEH 170659Z AUTO VRB03KT 8000 BR SCT270 00/M00 Q1012 BLU 12004KT CAVOK
Conditions at: EHEH (EINDHOVEN RNLAFB, NL) observed 0659 UTC 17 November 2019
Temperature: 0.0°C (32°F)
Dewpoint: 0.0°C (32°F) [RH = 100%]
Pressure (altimeter): 29.88 inches Hg (1012.0 mb)
Winds: variable direction winds at 3 MPH (3 knots; 1.5 m/s)
Visibility: 6 or more miles (10+ km)
Ceiling: at least 12,000 feet AGL
Clouds: scattered clouds at 27000 feet AGL
Weather: BR  (mist)

METAR text: EHEH 170655Z AUTO VRB03KT 7000 BR BKN270 00/M00 Q1012 WHT 12004KT CAVOK
Conditions at: EHEH (EINDHOVEN RNLAFB, NL) observed 0655 UTC 17 November 2019
Temperature: 0.0°C (32°F)
Dewpoint: 0.0°C (32°F) [RH = 100%]
Pressure (altimeter): 29.88 inches Hg (1012.0 mb)
Winds: variable direction winds at 3 MPH (3 knots; 1.5 m/s)
Visibility: 6 or more miles (10+ km)
Ceiling: 27000 feet AGL
Clouds: broken clouds at 27000 feet AGL
Weather: BR  (mist)

METAR text: EHEH 170648Z AUTO 14004KT 110V250 7000 BR BKN270 00/M00 Q1012 WHT 12004KT CAVOK
Conditions at: EHEH (EINDHOVEN RNLAFB, NL) observed 0648 UTC 17 November 2019
Temperature: 0.0°C (32°F)
Dewpoint: 0.0°C (32°F) [RH = 100%]
Pressure (altimeter): 29.88 inches Hg (1012.0 mb)
Winds: from the SE (140 degrees) at 5 MPH (4 knots; 2.1 m/s)
Visibility: 6 or more miles (10+ km)
Ceiling: 27000 feet AGL
Clouds: broken clouds at 27000 feet AGL
Weather: BR  (mist)

METAR text: EHEH 170640Z AUTO 13004KT 100V210 8000 BR OVC270 01/M00 Q1012 BLU 12004KT CAVOK
Conditions at: EHEH (EINDHOVEN RNLAFB, NL) observed 0640 UTC 17 November 2019
Temperature: 1.0°C (34°F)
Dewpoint: 0.0°C (32°F) [RH = 93%]
Pressure (altimeter): 29.88 inches Hg (1012.0 mb)
Winds: from the SE (130 degrees) at 5 MPH (4 knots; 2.1 m/s)
Visibility: 6 or more miles (10+ km)
Ceiling: 27000 feet AGL
Clouds: overcast cloud deck at 27000 feet AGL
Weather: BR  (mist)

METAR text: EHEH 170628Z AUTO 12004KT 090V190 8000 BR OVC280 01/M00 Q1012 BLU 12004KT 6000 NSC TEMPO 3500 BR MIFG
Conditions at: EHEH (EINDHOVEN RNLAFB, NL) observed 0628 UTC 17 November 2019
Temperature: 1.0°C (34°F)
Dewpoint: 0.0°C (32°F) [RH = 93%]
Pressure (altimeter): 29.88 inches Hg (1012.0 mb)
Winds: from the ESE (120 degrees) at 5 MPH (4 knots; 2.1 m/s)
Visibility: 5 miles ( 8 km)
Ceiling: 28000 feet AGL
Clouds: overcast cloud deck at 28000 feet AGL
Weather: BR  (mist)

METAR text: EHEH 170626Z AUTO 12004KT 090V190 8000 BR OVC280 01/M00 Q1012 BLU 12004KT CAVOK
Conditions at: EHEH (EINDHOVEN RNLAFB, NL) observed 0626 UTC 17 November 2019
Temperature: 1.0°C (34°F)
Dewpoint: 0.0°C (32°F) [RH = 93%]
Pressure (altimeter): 29.88 inches Hg (1012.0 mb)
Winds: from the ESE (120 degrees) at 5 MPH (4 knots; 2.1 m/s)
Visibility: 6 or more miles (10+ km)
Ceiling: 28000 feet AGL
Clouds: overcast cloud deck at 28000 feet AGL
Weather: BR  (mist)

METAR text: EHEH 170625Z AUTO 13004KT 120V210 7000 BR BKN290 01/00 Q1012 WHT VRB02KT 6000 NSC TEMPO 3500 BR MIFG
Conditions at: EHEH (EINDHOVEN RNLAFB, NL) observed 0625 UTC 17 November 2019
Temperature: 1.0°C (34°F)
Dewpoint: 0.0°C (32°F) [RH = 93%]
Pressure (altimeter): 29.88 inches Hg (1012.0 mb)
Winds: from the SE (130 degrees) at 5 MPH (4 knots; 2.1 m/s)
Visibility: 4 miles ( 7 km)
Ceiling: 29000 feet AGL
Clouds: broken clouds at 29000 feet AGL
Weather: BR  (mist)

METAR text: EHEH 170621Z AUTO 13004KT 120V210 7000 BR SCT290 01/M00 Q1012 WHT VRB02KT 6000 NSC TEMPO 3500 BR MIFG
Conditions at: EHEH (EINDHOVEN RNLAFB, NL) observed 0621 UTC 17 November 2019
Temperature: 1.0°C (34°F)
Dewpoint: 0.0°C (32°F) [RH = 93%]
Pressure (altimeter): 29.88 inches Hg (1012.0 mb)
Winds: from the SE (130 degrees) at 5 MPH (4 knots; 2.1 m/s)
Visibility: 4 miles ( 7 km)
Ceiling: at least 12,000 feet AGL
Clouds: scattered clouds at 29000 feet AGL
Weather: BR  (mist)

METAR text: EHEH 170609Z AUTO 13005KT 100V190 9000 BR SCT340 01/M00 Q1012 BLU VRB02KT 6000 NSC TEMPO 3500 BR MIFG
Conditions at: EHEH (EINDHOVEN RNLAFB, NL) observed 0609 UTC 17 November 2019
Temperature: 1.0°C (34°F)
Dewpoint: 0.0°C (32°F) [RH = 93%]
Pressure (altimeter): 29.88 inches Hg (1012.0 mb)
Winds: from the SE (130 degrees) at 6 MPH (5 knots; 2.6 m/s)
Visibility: 6 miles ( 9 km)
Ceiling: at least 12,000 feet AGL
Clouds: scattered clouds at 34000 feet AGL
Weather: BR  (mist)

METAR text: EHEH 170606Z AUTO 13005KT 5000 BR BKN330 01/M00 Q1011 WHT VRB02KT 6000 NSC TEMPO 3500 BR MIFG
Conditions at: EHEH (EINDHOVEN RNLAFB, NL) observed 0606 UTC 17 November 2019
Temperature: 1.0°C (34°F)
Dewpoint: 0.0°C (32°F) [RH = 93%]
Pressure (altimeter): 29.85 inches Hg (1011.0 mb)
Winds: from the SE (130 degrees) at 6 MPH (5 knots; 2.6 m/s)
Visibility: 3 miles ( 5 km)
Ceiling: 33000 feet AGL
Clouds: broken clouds at 33000 feet AGL
Weather: BR  (mist)

METAR text: EHEH 170559Z AUTO 13004KT 4400 BR BKN320 01/M00 Q1011 GRN VRB02KT 6000 NSC TEMPO 3500 BR MIFG
Conditions at: EHEH (EINDHOVEN RNLAFB, NL) observed 0559 UTC 17 November 2019
Temperature: 1.0°C (34°F)
Dewpoint: 0.0°C (32°F) [RH = 93%]
Pressure (altimeter): 29.85 inches Hg (1011.0 mb)
Winds: from the SE (130 degrees) at 5 MPH (4 knots; 2.1 m/s)
Visibility: 2.73 miles (4.39 km)
Ceiling: 32000 feet AGL
Clouds: broken clouds at 32000 feet AGL
Weather: BR  (mist)

METAR text: EHEH 170555Z AUTO 12003KT 100V160 5000 BR OVC320 01/00 Q1011 WHT VRB02KT 6000 NSC TEMPO 3500 BR MIFG
Conditions at: EHEH (EINDHOVEN RNLAFB, NL) observed 0555 UTC 17 November 2019
Temperature: 1.0°C (34°F)
Dewpoint: 0.0°C (32°F) [RH = 93%]
Pressure (altimeter): 29.85 inches Hg (1011.0 mb)
Winds: from the ESE (120 degrees) at 3 MPH (3 knots; 1.5 m/s)
Visibility: 3 miles ( 5 km)
Ceiling: 32000 feet AGL
Clouds: overcast cloud deck at 32000 feet AGL
Weather: BR  (mist)

METAR text: EHEH 170541Z AUTO 14001KT 4900 BR NCD 01/00 Q1011 GRN VRB02KT 6000 NSC TEMPO 3500 BR MIFG
Conditions at: EHEH (EINDHOVEN RNLAFB, NL) observed 0541 UTC 17 November 2019
Temperature: 1.0°C (34°F)
Dewpoint: 0.0°C (32°F) [RH = 93%]
Pressure (altimeter): 29.85 inches Hg (1011.0 mb)
Winds: from the SE (140 degrees) at 1 MPH (1 knots; 0.5 m/s)
Visibility: 3 miles ( 5 km)
Ceiling: at least 12,000 feet AGL
Clouds: sky clear below 12,000 feet AGL
Weather: BR  (mist)

METAR text: EHEH 170530Z AUTO VRB02KT 2600 R21/P3000N BR NCD 00/M00 Q1011 YLO VRB02KT 6000 NSC TEMPO 3500 BR MIFG
Conditions at: EHEH (EINDHOVEN RNLAFB, NL) observed 0530 UTC 17 November 2019
Temperature: 0.0°C (32°F)
Dewpoint: 0.0°C (32°F) [RH = 100%]
Pressure (altimeter): 29.85 inches Hg (1011.0 mb)
Winds: variable direction winds at 2 MPH (2 knots; 1.0 m/s)
Visibility: 1.62 miles (2.61 km)
Ceiling: at least 12,000 feet AGL
Clouds: sky clear below 12,000 feet AGL
Weather: BR  (mist)

METAR text: EHEH 170525Z AUTO VRB02KT 6000 BR NCD 01/00 Q1011 WHT VRB02KT 6000 NSC TEMPO 3500 BR MIFG
Conditions at: EHEH (EINDHOVEN RNLAFB, NL) observed 0525 UTC 17 November 2019
Temperature: 1.0°C (34°F)
Dewpoint: 0.0°C (32°F) [RH = 93%]
Pressure (altimeter): 29.85 inches Hg (1011.0 mb)
Winds: variable direction winds at 2 MPH (2 knots; 1.0 m/s)
Visibility: 4 miles ( 6 km)
Ceiling: at least 12,000 feet AGL
Clouds: sky clear below 12,000 feet AGL
Weather: BR  (mist)

METAR text: EHEH 170516Z AUTO VRB01KT 7000 BR SCT320 01/01 Q1011 WHT
Conditions at: EHEH (EINDHOVEN RNLAFB, NL) observed 0516 UTC 17 November 2019
Temperature: 1.0°C (34°F)
Dewpoint: 1.0°C (34°F) [RH = 100%]
Pressure (altimeter): 29.85 inches Hg (1011.0 mb)
Winds: variable direction winds at 1 MPH (1 knots; 0.5 m/s)
Visibility: 4 miles ( 7 km)
Ceiling: at least 12,000 feet AGL
Clouds: scattered clouds at 32000 feet AGL
Weather: BR  (mist)

METAR text: EHEH 170505Z AUTO VRB01KT 8000 BR OVC320 01/01 Q1011 BLU
Conditions at: EHEH (EINDHOVEN RNLAFB, NL) observed 0505 UTC 17 November 2019
Temperature: 1.0°C (34°F)
Dewpoint: 1.0°C (34°F) [RH = 100%]
Pressure (altimeter): 29.85 inches Hg (1011.0 mb)
Winds: variable direction winds at 1 MPH (1 knots; 0.5 m/s)
Visibility: 5 miles ( 8 km)
Ceiling: 32000 feet AGL
Clouds: overcast cloud deck at 32000 feet AGL
Weather: BR  (mist)

METAR text: EHEH 170459Z AUTO VRB02KT 7000 BR BKN320/// 01/01 Q1011 WHT
Conditions at: EHEH (EINDHOVEN RNLAFB, NL) observed 0459 UTC 17 November 2019
Temperature: 1.0°C (34°F)
Dewpoint: 1.0°C (34°F) [RH = 100%]
Pressure (altimeter): 29.85 inches Hg (1011.0 mb)
Winds: variable direction winds at 2 MPH (2 knots; 1.0 m/s)
Visibility: 4 miles ( 7 km)
Ceiling: 32000 feet AGL
Clouds: broken clouds at 32000 feet AGL
Weather: BR  (mist)

METAR text: EHEH 170455Z AUTO 14003KT 9000 BR SCT320 01/01 Q1011 BLU
Conditions at: EHEH (EINDHOVEN RNLAFB, NL) observed 0455 UTC 17 November 2019
Temperature: 1.0°C (34°F)
Dewpoint: 1.0°C (34°F) [RH = 100%]
Pressure (altimeter): 29.85 inches Hg (1011.0 mb)
Winds: from the SE (140 degrees) at 3 MPH (3 knots; 1.5 m/s)
Visibility: 6 miles ( 9 km)
Ceiling: at least 12,000 feet AGL
Clouds: scattered clouds at 32000 feet AGL
Weather: BR  (mist)

METAR text: EHEH 170425Z AUTO 13003KT 9999 NCD 01/01 Q1011 BLU
Conditions at: EHEH (EINDHOVEN RNLAFB, NL) observed 0425 UTC 17 November 2019
Temperature: 1.0°C (34°F)
Dewpoint: 1.0°C (34°F) [RH = 100%]
Pressure (altimeter): 29.85 inches Hg (1011.0 mb)
Winds: from the SE (130 degrees) at 3 MPH (3 knots; 1.5 m/s)
Visibility: 6 or more miles (10+ km)
Ceiling: at least 12,000 feet AGL
Clouds: sky clear below 12,000 feet AGL
Weather: no significant weather observed at this time

METAR text: EHEH 170355Z AUTO 11003KT 9999 NCD 02/01 Q1011 BLU
Conditions at: EHEH (EINDHOVEN RNLAFB, NL) observed 0355 UTC 17 November 2019
Temperature: 2.0°C (36°F)
Dewpoint: 1.0°C (34°F) [RH = 93%]
Pressure (altimeter): 29.85 inches Hg (1011.0 mb)
Winds: from the ESE (110 degrees) at 3 MPH (3 knots; 1.5 m/s)
Visibility: 6 or more miles (10+ km)
Ceiling: at least 12,000 feet AGL
Clouds: sky clear below 12,000 feet AGL
Weather: no significant weather observed at this time

METAR text: EHEH 170325Z AUTO VRB01KT 9999 NCD 03/02 Q1011 BLU
Conditions at: EHEH (EINDHOVEN RNLAFB, NL) observed 0325 UTC 17 November 2019
Temperature: 3.0°C (37°F)
Dewpoint: 2.0°C (36°F) [RH = 93%]
Pressure (altimeter): 29.85 inches Hg (1011.0 mb)
Winds: variable direction winds at 1 MPH (1 knots; 0.5 m/s)
Visibility: 6 or more miles (10+ km)
Ceiling: at least 12,000 feet AGL
Clouds: sky clear below 12,000 feet AGL
Weather: no significant weather observed at this time

METAR text: EHEH 170255Z AUTO 13006KT 100V170 9999 OVC036 04/02 Q1011 BLU
Conditions at: EHEH (EINDHOVEN RNLAFB, NL) observed 0255 UTC 17 November 2019
Temperature: 4.0°C (39°F)
Dewpoint: 2.0°C (36°F) [RH = 87%]
Pressure (altimeter): 29.85 inches Hg (1011.0 mb)
Winds: from the SE (130 degrees) at 7 MPH (6 knots; 3.1 m/s)
Visibility: 6 or more miles (10+ km)
Ceiling: 3600 feet AGL
Clouds: overcast cloud deck at 3600 feet AGL
Weather: no significant weather observed at this time

METAR text: EHEH 170225Z AUTO 14003KT 120V180 9999 OVC034 05/02 Q1011 BLU
Conditions at: EHEH (EINDHOVEN RNLAFB, NL) observed 0225 UTC 17 November 2019
Temperature: 5.0°C (41°F)
Dewpoint: 2.0°C (36°F) [RH = 81%]
Pressure (altimeter): 29.85 inches Hg (1011.0 mb)
Winds: from the SE (140 degrees) at 3 MPH (3 knots; 1.5 m/s)
Visibility: 6 or more miles (10+ km)
Ceiling: 3400 feet AGL
Clouds: overcast cloud deck at 3400 feet AGL
Weather: no significant weather observed at this time

METAR text: EHEH 170155Z AUTO 14005KT 9999 OVC035 05/02 Q1011 BLU
Conditions at: EHEH (EINDHOVEN RNLAFB, NL) observed 0155 UTC 17 November 2019
Temperature: 5.0°C (41°F)
Dewpoint: 2.0°C (36°F) [RH = 81%]
Pressure (altimeter): 29.85 inches Hg (1011.0 mb)
Winds: from the SE (140 degrees) at 6 MPH (5 knots; 2.6 m/s)
Visibility: 6 or more miles (10+ km)
Ceiling: 3500 feet AGL
Clouds: overcast cloud deck at 3500 feet AGL
Weather: no significant weather observed at this time

METAR text: EHEH 170125Z AUTO 15003KT 9999 OVC035 05/02 Q1011 BLU
Conditions at: EHEH (EINDHOVEN RNLAFB, NL) observed 0125 UTC 17 November 2019
Temperature: 5.0°C (41°F)
Dewpoint: 2.0°C (36°F) [RH = 81%]
Pressure (altimeter): 29.85 inches Hg (1011.0 mb)
Winds: from the SSE (150 degrees) at 3 MPH (3 knots; 1.5 m/s)
Visibility: 6 or more miles (10+ km)
Ceiling: 3500 feet AGL
Clouds: overcast cloud deck at 3500 feet AGL
Weather: no significant weather observed at this time

METAR text: EHEH 170055Z AUTO 16003KT 130V200 9999 OVC036 05/02 Q1011 BLU
Conditions at: EHEH (EINDHOVEN RNLAFB, NL) observed 0055 UTC 17 November 2019
Temperature: 5.0°C (41°F)
Dewpoint: 2.0°C (36°F) [RH = 81%]
Pressure (altimeter): 29.85 inches Hg (1011.0 mb)
Winds: from the SSE (160 degrees) at 3 MPH (3 knots; 1.5 m/s)
Visibility: 6 or more miles (10+ km)
Ceiling: 3600 feet AGL
Clouds: overcast cloud deck at 3600 feet AGL
Weather: no significant weather observed at this time

METAR text: EHEH 170025Z AUTO 15004KT 120V190 9999 OVC037 05/02 Q1011 BLU
Conditions at: EHEH (EINDHOVEN RNLAFB, NL) observed 0025 UTC 17 November 2019
Temperature: 5.0°C (41°F)
Dewpoint: 2.0°C (36°F) [RH = 81%]
Pressure (altimeter): 29.85 inches Hg (1011.0 mb)
Winds: from the SSE (150 degrees) at 5 MPH (4 knots; 2.1 m/s)
Visibility: 6 or more miles (10+ km)
Ceiling: 3700 feet AGL
Clouds: overcast cloud deck at 3700 feet AGL
Weather: no significant weather observed at this time

METAR text: EHEH 162355Z AUTO 16005KT 9999 OVC036 05/02 Q1011 BLU
Conditions at: EHEH (EINDHOVEN RNLAFB, NL) observed 2355 UTC 16 November 2019
Temperature: 5.0°C (41°F)
Dewpoint: 2.0°C (36°F) [RH = 81%]
Pressure (altimeter): 29.85 inches Hg (1011.0 mb)
Winds: from the SSE (160 degrees) at 6 MPH (5 knots; 2.6 m/s)
Visibility: 6 or more miles (10+ km)
Ceiling: 3600 feet AGL
Clouds: overcast cloud deck at 3600 feet AGL
Weather: no significant weather observed at this time

METAR text: EHEH 162325Z AUTO 16005KT 9999 SCT033 OVC039 05/02 Q1011 BLU
Conditions at: EHEH (EINDHOVEN RNLAFB, NL) observed 2325 UTC 16 November 2019
Temperature: 5.0°C (41°F)
Dewpoint: 2.0°C (36°F) [RH = 81%]
Pressure (altimeter): 29.85 inches Hg (1011.0 mb)
Winds: from the SSE (160 degrees) at 6 MPH (5 knots; 2.6 m/s)
Visibility: 6 or more miles (10+ km)
Ceiling: 3900 feet AGL
Clouds: scattered clouds at 3300 feet AGL
overcast cloud deck at 3900 feet AGL
Weather: no significant weather observed at this time

METAR text: EHEH 162255Z AUTO 17004KT 9999 OVC040 05/02 Q1011 BLU
Conditions at: EHEH (EINDHOVEN RNLAFB, NL) observed 2255 UTC 16 November 2019
Temperature: 5.0°C (41°F)
Dewpoint: 2.0°C (36°F) [RH = 81%]
Pressure (altimeter): 29.85 inches Hg (1011.0 mb)
Winds: from the S (170 degrees) at 5 MPH (4 knots; 2.1 m/s)
Visibility: 6 or more miles (10+ km)
Ceiling: 4000 feet AGL
Clouds: overcast cloud deck at 4000 feet AGL
Weather: no significant weather observed at this time

METAR text: EHEH 162225Z AUTO 17005KT 120V220 9999 OVC039 05/02 Q1011 BLU 17005KT 9999 OVC035
Conditions at: EHEH (EINDHOVEN RNLAFB, NL) observed 2225 UTC 16 November 2019
Temperature: 5.0°C (41°F)
Dewpoint: 2.0°C (36°F) [RH = 81%]
Pressure (altimeter): 29.85 inches Hg (1011.0 mb)
Winds: from the S (170 degrees) at 6 MPH (5 knots; 2.6 m/s)
Visibility: 6 or more miles (10+ km)
Ceiling: 3900 feet AGL
Clouds: overcast cloud deck at 3900 feet AGL
overcast cloud deck at 3500 feet AGL
Weather: no significant weather observed at this time

METAR text: EHEH 162155Z AUTO 18004KT 170V230 9999 OVC040 05/02 Q1011 BLU 17005KT 9999 OVC035
Conditions at: EHEH (EINDHOVEN RNLAFB, NL) observed 2155 UTC 16 November 2019
Temperature: 5.0°C (41°F)
Dewpoint: 2.0°C (36°F) [RH = 81%]
Pressure (altimeter): 29.85 inches Hg (1011.0 mb)
Winds: from the S (180 degrees) at 5 MPH (4 knots; 2.1 m/s)
Visibility: 6 or more miles (10+ km)
Ceiling: 4000 feet AGL
Clouds: overcast cloud deck at 4000 feet AGL
overcast cloud deck at 3500 feet AGL
Weather: no significant weather observed at this time

METAR text: EHEH 162125Z AUTO 17004KT 140V200 9999 OVC040 06/03 Q1011 BLU 17005KT 9999 OVC035
Conditions at: EHEH (EINDHOVEN RNLAFB, NL) observed 2125 UTC 16 November 2019
Temperature: 6.0°C (43°F)
Dewpoint: 3.0°C (37°F) [RH = 81%]
Pressure (altimeter): 29.85 inches Hg (1011.0 mb)
Winds: from the S (170 degrees) at 5 MPH (4 knots; 2.1 m/s)
Visibility: 6 or more miles (10+ km)
Ceiling: 4000 feet AGL
Clouds: overcast cloud deck at 4000 feet AGL
overcast cloud deck at 3500 feet AGL
Weather: no significant weather observed at this time

METAR text: EHEH 162055Z AUTO 17006KT 140V220 9999 OVC035 06/03 Q1011 BLU 17005KT 9999 OVC035
Conditions at: EHEH (EINDHOVEN RNLAFB, NL) observed 2055 UTC 16 November 2019
Temperature: 6.0°C (43°F)
Dewpoint: 3.0°C (37°F) [RH = 81%]
Pressure (altimeter): 29.85 inches Hg (1011.0 mb)
Winds: from the S (170 degrees) at 7 MPH (6 knots; 3.1 m/s)
Visibility: 6 or more miles (10+ km)
Ceiling: 3500 feet AGL
Clouds: overcast cloud deck at 3500 feet AGL
overcast cloud deck at 3500 feet AGL
Weather: no significant weather observed at this time

METAR text: EHEH 162025Z AUTO 18005KT 9999 OVC033 06/02 Q1011 BLU 17005KT 9999 OVC035
Conditions at: EHEH (EINDHOVEN RNLAFB, NL) observed 2025 UTC 16 November 2019
Temperature: 6.0°C (43°F)
Dewpoint: 2.0°C (36°F) [RH = 75%]
Pressure (altimeter): 29.85 inches Hg (1011.0 mb)
Winds: from the S (180 degrees) at 6 MPH (5 knots; 2.6 m/s)
Visibility: 6 or more miles (10+ km)
Ceiling: 3300 feet AGL
Clouds: overcast cloud deck at 3300 feet AGL
overcast cloud deck at 3500 feet AGL
Weather: no significant weather observed at this time

METAR text: EHEH 161955Z AUTO 20007KT 170V230 9999 OVC028 06/02 Q1011 BLU 17005KT CAVOK BECMG VRB03KT
Conditions at: EHEH (EINDHOVEN RNLAFB, NL) observed 1955 UTC 16 November 2019
Temperature: 6.0°C (43°F)
Dewpoint: 2.0°C (36°F) [RH = 75%]
Pressure (altimeter): 29.85 inches Hg (1011.0 mb)
Winds: from the SSW (200 degrees) at 8 MPH (7 knots; 3.6 m/s)
Visibility: 6 or more miles (10+ km)
Ceiling: 2800 feet AGL
Clouds: overcast cloud deck at 2800 feet AGL
Weather: no significant weather observed at this time

METAR text: EHEH 161925Z AUTO 17006KT 140V200 9999 OVC029 06/02 Q1010 BLU 17005KT CAVOK BECMG VRB03KT
Conditions at: EHEH (EINDHOVEN RNLAFB, NL) observed 1925 UTC 16 November 2019
Temperature: 6.0°C (43°F)
Dewpoint: 2.0°C (36°F) [RH = 75%]
Pressure (altimeter): 29.82 inches Hg (1010.0 mb)
Winds: from the S (170 degrees) at 7 MPH (6 knots; 3.1 m/s)
Visibility: 6 or more miles (10+ km)
Ceiling: 2900 feet AGL
Clouds: overcast cloud deck at 2900 feet AGL
Weather: no significant weather observed at this time

METAR text: EHEH 161855Z AUTO 17004KT 150V210 9999 OVC029 06/03 Q1010 BLU 17005KT CAVOK BECMG VRB03KT
Conditions at: EHEH (EINDHOVEN RNLAFB, NL) observed 1855 UTC 16 November 2019
Temperature: 6.0°C (43°F)
Dewpoint: 3.0°C (37°F) [RH = 81%]
Pressure (altimeter): 29.82 inches Hg (1010.0 mb)
Winds: from the S (170 degrees) at 5 MPH (4 knots; 2.1 m/s)
Visibility: 6 or more miles (10+ km)
Ceiling: 2900 feet AGL
Clouds: overcast cloud deck at 2900 feet AGL
Weather: no significant weather observed at this time

METAR text: EHEH 161825Z AUTO 17005KT 9999 OVC030 05/02 Q1010 BLU 17005KT CAVOK BECMG VRB03KT
Conditions at: EHEH (EINDHOVEN RNLAFB, NL) observed 1825 UTC 16 November 2019
Temperature: 5.0°C (41°F)
Dewpoint: 2.0°C (36°F) [RH = 81%]
Pressure (altimeter): 29.82 inches Hg (1010.0 mb)
Winds: from the S (170 degrees) at 6 MPH (5 knots; 2.6 m/s)
Visibility: 6 or more miles (10+ km)
Ceiling: 3000 feet AGL
Clouds: overcast cloud deck at 3000 feet AGL
Weather: no significant weather observed at this time

METAR text: EHEH 161755Z AUTO 20004KT 130V230 9999 OVC030 04/02 Q1010 BLU 17005KT CAVOK BECMG VRB03KT
Conditions at: EHEH (EINDHOVEN RNLAFB, NL) observed 1755 UTC 16 November 2019
Temperature: 4.0°C (39°F)
Dewpoint: 2.0°C (36°F) [RH = 87%]
Pressure (altimeter): 29.82 inches Hg (1010.0 mb)
Winds: from the SSW (200 degrees) at 5 MPH (4 knots; 2.1 m/s)
Visibility: 6 or more miles (10+ km)
Ceiling: 3000 feet AGL
Clouds: overcast cloud deck at 3000 feet AGL
Weather: no significant weather observed at this time

METAR text: EHEH 161725Z AUTO 21003KT 180V260 9999 FEW040 OVC200 03/02 Q1009 BLU 17005KT CAVOK BECMG VRB03KT
Conditions at: EHEH (EINDHOVEN RNLAFB, NL) observed 1725 UTC 16 November 2019
Temperature: 3.0°C (37°F)
Dewpoint: 2.0°C (36°F) [RH = 93%]
Pressure (altimeter): 29.79 inches Hg (1009.0 mb)
Winds: from the SSW (210 degrees) at 3 MPH (3 knots; 1.5 m/s)
Visibility: 6 or more miles (10+ km)
Ceiling: 20000 feet AGL
Clouds: few clouds at 4000 feet AGL
overcast cloud deck at 20000 feet AGL
Weather: no significant weather observed at this time

METAR text: EHEH 161710Z AUTO VRB02KT 9999 OVC200 02/01 Q1009 BLU 17005KT CAVOK BECMG VRB03KT
Conditions at: EHEH (EINDHOVEN RNLAFB, NL) observed 1710 UTC 16 November 2019
Temperature: 2.0°C (36°F)
Dewpoint: 1.0°C (34°F) [RH = 93%]
Pressure (altimeter): 29.79 inches Hg (1009.0 mb)
Winds: variable direction winds at 2 MPH (2 knots; 1.0 m/s)
Visibility: 6 or more miles (10+ km)
Ceiling: 20000 feet AGL
Clouds: overcast cloud deck at 20000 feet AGL
Weather: no significant weather observed at this time

METAR text: EHEH 161655Z AUTO VRB02KT 9999 OVC200 03/02 Q1009 BLU 17005KT CAVOK BECMG VRB03KT
Conditions at: EHEH (EINDHOVEN RNLAFB, NL) observed 1655 UTC 16 November 2019
Temperature: 3.0°C (37°F)
Dewpoint: 2.0°C (36°F) [RH = 93%]
Pressure (altimeter): 29.79 inches Hg (1009.0 mb)
Winds: variable direction winds at 2 MPH (2 knots; 1.0 m/s)
Visibility: 6 or more miles (10+ km)
Ceiling: 20000 feet AGL
Clouds: overcast cloud deck at 20000 feet AGL
Weather: no significant weather observed at this time

METAR text: EHEH 161625Z AUTO VRB02KT 9999 OVC170 03/01 Q1009 BLU 17005KT CAVOK
Conditions at: EHEH (EINDHOVEN RNLAFB, NL) observed 1625 UTC 16 November 2019
Temperature: 3.0°C (37°F)
Dewpoint: 1.0°C (34°F) [RH = 87%]
Pressure (altimeter): 29.79 inches Hg (1009.0 mb)
Winds: variable direction winds at 2 MPH (2 knots; 1.0 m/s)
Visibility: 6 or more miles (10+ km)
Ceiling: 17000 feet AGL
Clouds: overcast cloud deck at 17000 feet AGL
Weather: no significant weather observed at this time

METAR text: EHEH 161555Z AUTO 18003KT 130V220 9999 OVC180 05/02 Q1009 BLU 17005KT CAVOK
Conditions at: EHEH (EINDHOVEN RNLAFB, NL) observed 1555 UTC 16 November 2019
Temperature: 5.0°C (41°F)
Dewpoint: 2.0°C (36°F) [RH = 81%]
Pressure (altimeter): 29.79 inches Hg (1009.0 mb)
Winds: from the S (180 degrees) at 3 MPH (3 knots; 1.5 m/s)
Visibility: 6 or more miles (10+ km)
Ceiling: 18000 feet AGL
Clouds: overcast cloud deck at 18000 feet AGL
Weather: no significant weather observed at this time

METAR text: EHEH 161525Z AUTO 18005KT 150V210 9999 OVC190 06/02 Q1008 BLU 17005KT CAVOK
Conditions at: EHEH (EINDHOVEN RNLAFB, NL) observed 1525 UTC 16 November 2019
Temperature: 6.0°C (43°F)
Dewpoint: 2.0°C (36°F) [RH = 75%]
Pressure (altimeter): 29.76 inches Hg (1008.0 mb)
Winds: from the S (180 degrees) at 6 MPH (5 knots; 2.6 m/s)
Visibility: 6 or more miles (10+ km)
Ceiling: 19000 feet AGL
Clouds: overcast cloud deck at 19000 feet AGL
Weather: no significant weather observed at this time

METAR text: EHEH 161455Z AUTO 18005KT 9999 OVC210 07/03 Q1008 BLU 19007KT 9999 FEW020 BKN200
Conditions at: EHEH (EINDHOVEN RNLAFB, NL) observed 1455 UTC 16 November 2019
Temperature: 7.0°C (45°F)
Dewpoint: 3.0°C (37°F) [RH = 76%]
Pressure (altimeter): 29.76 inches Hg (1008.0 mb)
Winds: from the S (180 degrees) at 6 MPH (5 knots; 2.6 m/s)
Visibility: 6 or more miles (10+ km)
Ceiling: 21000 feet AGL
Clouds: overcast cloud deck at 21000 feet AGL
few clouds at 2000 feet AGL
broken clouds at 20000 feet AGL
Weather: no significant weather observed at this time

METAR text: EHEH 161425Z AUTO 19005KT 150V220 9999 OVC200 07/03 Q1008 BLU 19007KT 9999 FEW020 BKN200
Conditions at: EHEH (EINDHOVEN RNLAFB, NL) observed 1425 UTC 16 November 2019
Temperature: 7.0°C (45°F)
Dewpoint: 3.0°C (37°F) [RH = 76%]
Pressure (altimeter): 29.76 inches Hg (1008.0 mb)
Winds: from the S (190 degrees) at 6 MPH (5 knots; 2.6 m/s)
Visibility: 6 or more miles (10+ km)
Ceiling: 20000 feet AGL
Clouds: overcast cloud deck at 20000 feet AGL
few clouds at 2000 feet AGL
broken clouds at 20000 feet AGL
Weather: no significant weather observed at this time

METAR text: EHEH 161355Z AUTO 20007KT 9999 OVC190 08/03 Q1008 BLU 19007KT 9999 FEW020 BKN200
Conditions at: EHEH (EINDHOVEN RNLAFB, NL) observed 1355 UTC 16 November 2019
Temperature: 8.0°C (46°F)
Dewpoint: 3.0°C (37°F) [RH = 71%]
Pressure (altimeter): 29.76 inches Hg (1008.0 mb)
Winds: from the SSW (200 degrees) at 8 MPH (7 knots; 3.6 m/s)
Visibility: 6 or more miles (10+ km)
Ceiling: 19000 feet AGL
Clouds: overcast cloud deck at 19000 feet AGL
few clouds at 2000 feet AGL
broken clouds at 20000 feet AGL
Weather: no significant weather observed at this time

METAR text: EHEH 161331Z AUTO 19007KT 150V220 9999 OVC200 08/03 Q1007 BLU 19007KT 9999 FEW020 BKN200
Conditions at: EHEH (EINDHOVEN RNLAFB, NL) observed 1331 UTC 16 November 2019
Temperature: 8.0°C (46°F)
Dewpoint: 3.0°C (37°F) [RH = 71%]
Pressure (altimeter): 29.73 inches Hg (1007.0 mb)
Winds: from the S (190 degrees) at 8 MPH (7 knots; 3.6 m/s)
Visibility: 6 or more miles (10+ km)
Ceiling: 20000 feet AGL
Clouds: overcast cloud deck at 20000 feet AGL
few clouds at 2000 feet AGL
broken clouds at 20000 feet AGL
Weather: no significant weather observed at this time

METAR text: EHEH 161325Z AUTO 20006KT 170V230 9999 OVC210 08/03 Q1008 BLU 19007KT 9999 FEW017 BKN200
Conditions at: EHEH (EINDHOVEN RNLAFB, NL) observed 1325 UTC 16 November 2019
Temperature: 8.0°C (46°F)
Dewpoint: 3.0°C (37°F) [RH = 71%]
Pressure (altimeter): 29.76 inches Hg (1008.0 mb)
Winds: from the SSW (200 degrees) at 7 MPH (6 knots; 3.1 m/s)
Visibility: 6 or more miles (10+ km)
Ceiling: 21000 feet AGL
Clouds: overcast cloud deck at 21000 feet AGL
few clouds at 1700 feet AGL
broken clouds at 20000 feet AGL
Weather: no significant weather observed at this time

METAR text: EHEH 161255Z AUTO 19007KT 140V230 9999 OVC210 08/03 Q1008 BLU 19007KT 9999 FEW017 BKN200
Conditions at: EHEH (EINDHOVEN RNLAFB, NL) observed 1255 UTC 16 November 2019
Temperature: 8.0°C (46°F)
Dewpoint: 3.0°C (37°F) [RH = 71%]
Pressure (altimeter): 29.76 inches Hg (1008.0 mb)
Winds: from the S (190 degrees) at 8 MPH (7 knots; 3.6 m/s)
Visibility: 6 or more miles (10+ km)
Ceiling: 21000 feet AGL
Clouds: overcast cloud deck at 21000 feet AGL
few clouds at 1700 feet AGL
broken clouds at 20000 feet AGL
Weather: no significant weather observed at this time

METAR text: EHEH 161225Z AUTO 18006KT 160V220 9999 OVC200 07/03 Q1008 BLU 19007KT 9999 FEW017 BKN200
Conditions at: EHEH (EINDHOVEN RNLAFB, NL) observed 1225 UTC 16 November 2019
Temperature: 7.0°C (45°F)
Dewpoint: 3.0°C (37°F) [RH = 76%]
Pressure (altimeter): 29.76 inches Hg (1008.0 mb)
Winds: from the S (180 degrees) at 7 MPH (6 knots; 3.1 m/s)
Visibility: 6 or more miles (10+ km)
Ceiling: 20000 feet AGL
Clouds: overcast cloud deck at 20000 feet AGL
few clouds at 1700 feet AGL
broken clouds at 20000 feet AGL
Weather: no significant weather observed at this time

METAR text: EHEH 161216Z AUTO 18005KT 140V250 9999 OVC200 07/03 Q1008 BLU 19007KT 9999 FEW017 BKN200
Conditions at: EHEH (EINDHOVEN RNLAFB, NL) observed 1216 UTC 16 November 2019
Temperature: 7.0°C (45°F)
Dewpoint: 3.0°C (37°F) [RH = 76%]
Pressure (altimeter): 29.76 inches Hg (1008.0 mb)
Winds: from the S (180 degrees) at 6 MPH (5 knots; 2.6 m/s)
Visibility: 6 or more miles (10+ km)
Ceiling: 20000 feet AGL
Clouds: overcast cloud deck at 20000 feet AGL
few clouds at 1700 feet AGL
broken clouds at 20000 feet AGL
Weather: no significant weather observed at this time

METAR text: EHEH 161155Z AUTO 20004KT 140V220 9999 OVC190 07/03 Q1008 BLU 19007KT CAVOK
Conditions at: EHEH (EINDHOVEN RNLAFB, NL) observed 1155 UTC 16 November 2019
Temperature: 7.0°C (45°F)
Dewpoint: 3.0°C (37°F) [RH = 76%]
Pressure (altimeter): 29.76 inches Hg (1008.0 mb)
Winds: from the SSW (200 degrees) at 5 MPH (4 knots; 2.1 m/s)
Visibility: 6 or more miles (10+ km)
Ceiling: 19000 feet AGL
Clouds: overcast cloud deck at 19000 feet AGL
Weather: no significant weather observed at this time

METAR text: EHEH 161125Z AUTO 21004KT 160V230 9999 OVC170 06/03 Q1008 BLU 19007KT CAVOK
Conditions at: EHEH (EINDHOVEN RNLAFB, NL) observed 1125 UTC 16 November 2019
Temperature: 6.0°C (43°F)
Dewpoint: 3.0°C (37°F) [RH = 81%]
Pressure (altimeter): 29.76 inches Hg (1008.0 mb)
Winds: from the SSW (210 degrees) at 5 MPH (4 knots; 2.1 m/s)
Visibility: 6 or more miles (10+ km)
Ceiling: 17000 feet AGL
Clouds: overcast cloud deck at 17000 feet AGL
Weather: no significant weather observed at this time

METAR text: EHEH 161055Z AUTO 20005KT 190V250 9999 OVC170 05/02 Q1008 BLU 19007KT CAVOK
Conditions at: EHEH (EINDHOVEN RNLAFB, NL) observed 1055 UTC 16 November 2019
Temperature: 5.0°C (41°F)
Dewpoint: 2.0°C (36°F) [RH = 81%]
Pressure (altimeter): 29.76 inches Hg (1008.0 mb)
Winds: from the SSW (200 degrees) at 6 MPH (5 knots; 2.6 m/s)
Visibility: 6 or more miles (10+ km)
Ceiling: 17000 feet AGL
Clouds: overcast cloud deck at 17000 feet AGL
Weather: no significant weather observed at this time

METAR text: EHEH 161025Z AUTO 17004KT 150V220 9999 OVC170 04/02 Q1008 BLU 19007KT CAVOK
Conditions at: EHEH (EINDHOVEN RNLAFB, NL) observed 1025 UTC 16 November 2019
Temperature: 4.0°C (39°F)
Dewpoint: 2.0°C (36°F) [RH = 87%]
Pressure (altimeter): 29.76 inches Hg (1008.0 mb)
Winds: from the S (170 degrees) at 5 MPH (4 knots; 2.1 m/s)
Visibility: 6 or more miles (10+ km)
Ceiling: 17000 feet AGL
Clouds: overcast cloud deck at 17000 feet AGL
Weather: no significant weather observed at this time

METAR text: EHEH 160955Z AUTO 16003KT 140V200 9999 OVC180 03/02 Q1008 BLU 18003KT CAVOK
Conditions at: EHEH (EINDHOVEN RNLAFB, NL) observed 0955 UTC 16 November 2019
Temperature: 3.0°C (37°F)
Dewpoint: 2.0°C (36°F) [RH = 93%]
Pressure (altimeter): 29.76 inches Hg (1008.0 mb)
Winds: from the SSE (160 degrees) at 3 MPH (3 knots; 1.5 m/s)
Visibility: 6 or more miles (10+ km)
Ceiling: 18000 feet AGL
Clouds: overcast cloud deck at 18000 feet AGL
Weather: no significant weather observed at this time

METAR text: EHEH 160925Z AUTO 18003KT 9999 OVC180 03/01 Q1008 BLU 18003KT CAVOK
Conditions at: EHEH (EINDHOVEN RNLAFB, NL) observed 0925 UTC 16 November 2019
Temperature: 3.0°C (37°F)
Dewpoint: 1.0°C (34°F) [RH = 87%]
Pressure (altimeter): 29.76 inches Hg (1008.0 mb)
Winds: from the S (180 degrees) at 3 MPH (3 knots; 1.5 m/s)
Visibility: 6 or more miles (10+ km)
Ceiling: 18000 feet AGL
Clouds: overcast cloud deck at 18000 feet AGL
Weather: no significant weather observed at this time

METAR text: EHEH 160855Z AUTO 13003KT 9999 OVC190 01/01 Q1007 BLU VRB03KT CAVOK
Conditions at: EHEH (EINDHOVEN RNLAFB, NL) observed 0855 UTC 16 November 2019
Temperature: 1.0°C (34°F)
Dewpoint: 1.0°C (34°F) [RH = 100%]
Pressure (altimeter): 29.73 inches Hg (1007.0 mb)
Winds: from the SE (130 degrees) at 3 MPH (3 knots; 1.5 m/s)
Visibility: 6 or more miles (10+ km)
Ceiling: 19000 feet AGL
Clouds: overcast cloud deck at 19000 feet AGL
Weather: no significant weather observed at this time

METAR text: EHEH 160825Z AUTO VRB01KT 9999 OVC190 01/01 Q1007 BLU VRB03KT CAVOK TEMPO 1500 BR MIFG BKN180
Conditions at: EHEH (EINDHOVEN RNLAFB, NL) observed 0825 UTC 16 November 2019
Temperature: 1.0°C (34°F)
Dewpoint: 1.0°C (34°F) [RH = 100%]
Pressure (altimeter): 29.73 inches Hg (1007.0 mb)
Winds: variable direction winds at 1 MPH (1 knots; 0.5 m/s)
Visibility: 6 or more miles (10+ km)
Ceiling: 19000 feet AGL
Clouds: overcast cloud deck at 19000 feet AGL
Weather: no significant weather observed at this time

METAR text: EHEH 160755Z AUTO VRB02KT 9999 OVC190 M00/M01 Q1007 BLU VRB03KT CAVOK TEMPO 1500 BR MIFG BKN180
Conditions at: EHEH (EINDHOVEN RNLAFB, NL) observed 0755 UTC 16 November 2019
Temperature: 0.0°C (32°F)
Dewpoint: -1.0°C (30°F) [RH = 93%]
Pressure (altimeter): 29.73 inches Hg (1007.0 mb)
Winds: variable direction winds at 2 MPH (2 knots; 1.0 m/s)
Visibility: 6 or more miles (10+ km)
Ceiling: 19000 feet AGL
Clouds: overcast cloud deck at 19000 feet AGL
Weather: no significant weather observed at this time

Forecast for: EHEH (EINDHOVEN RNLAFB, NL)
Text: TAF EHEH 171733Z 1718/1824 36007KT CAVOK
Forecast period: 1800 to 2200 UTC 17 November 2019
Forecast type: FROM: standard forecast or significant change
Winds: from the N (360 degrees) at 8 MPH (7 knots; 3.6 m/s)
Visibility: 6 or more miles 10+ km)
Ceiling: unknown
Clouds: missing
Weather: NSW  (no significant weather)
Text: BECMG 1722/1801 4500 -RA SCT015 BKN018 OVC030
Forecast period: 2200 UTC 17 November 2019 to 1500 UTC 18 November 2019
Forecast type: BECOMING: Conditions expected to become as follows by 0100 UTC 18 November 2019
Winds: from the N (360 degrees) at 8 MPH (7 knots; 3.6 m/s)
Visibility: 2.80 miles (4.51 km)
Ceiling: 1800 feet AGL
Clouds: scattered clouds at 1500 feet AGL
broken clouds at 1800 feet AGL
overcast cloud deck at 3000 feet AGL
Weather: -RA  (light rain)
Text: TEMPO 1722/1818 33008G18KT 3000 RADZ SCT008 OVC012
Forecast period: 2200 UTC 17 November 2019 to 1800 UTC 18 November 2019
Forecast type: TEMPORARY: The following changes expected for less than half the time period
Winds: from the NNW (330 degrees) at 9 MPH (8 knots; 4.1 m/s)
gusting to 21 MPH (18 knots; 9.3 m/s)
Visibility: 1.86 miles (2.99 km)
Ceiling: 1200 feet AGL
Clouds: scattered clouds at 800 feet AGL
overcast cloud deck at 1200 feet AGL
Weather: RA DZ  (moderate rain, moderate drizzle)
Text: PROB30
Forecast period: 0900 to 1500 UTC 18 November 2019
Forecast type: TEMPORARY: The following changes expected for less than half the time period
Visibility: 1.24 miles (2.00 km)
Ceiling: 800 feet AGL
Clouds: few clouds at 200 feet AGL
scattered clouds at 400 feet AGL
overcast cloud deck at 800 feet AGL
Weather: DZ RA  (moderate drizzle, moderate rain)
Text: TEMPO 1809/1815 2000 DZRA FEW002 SCT004 OVC008
Forecast period: 1500 to 2100 UTC 18 November 2019
Forecast type: BECOMING: Conditions expected to become as follows by 1800 UTC 18 November 2019
Winds: from the W (270 degrees) at 14 MPH (12 knots; 6.2 m/s)
Visibility: 2.80 miles (4.51 km)
Ceiling: 1800 feet AGL
Clouds: scattered clouds at 1500 feet AGL
broken clouds at 1800 feet AGL
overcast cloud deck at 3000 feet AGL
Weather: -RA  (light rain)
Text: BECMG 1815/1818 27012KT
Forecast period: 2100 UTC 18 November 2019 to 0000 UTC 19 November 2019
Forecast type: BECOMING: Conditions expected to become as follows by 0000 UTC 19 November 2019
Winds: from the SW (230 degrees) at 9 MPH (8 knots; 4.1 m/s)
Visibility: 2.80 miles (4.51 km)
Ceiling: 3000 feet AGL
Clouds: scattered clouds at 2000 feet AGL
broken clouds at 3000 feet AGL
Weather: -RA  (light rain)